Wilson Gdynia — 8PSA — position and weather

sailwx.info

Track history (hours):
 
Tides and Currents Weather Stations Pressure Air Temp Water Temp Dewpoint Dewpoint Depression Visibility Wind Speed Wind Dir Waves Ship Positions

Wilson Gdynia

Last reported at 2014-Jul-29 06:33 UTC. Time now 2014-Jul-29 06:40 UTC.
Position N 55°52' E 012°50'.

Length 88 m; draft 5.7 m.

Type: Cargo ship. MMSI: 314192000.

Date/timePositionNaut miles runAvg speedWind from/ knotsBaromVisibWave heightAir tempDewpointWater temp
2014-Jul-29 06:33N 55°52' E 012°50'0 0.0
2014-Jul-29 05:29N 55°52' E 012°50'0 0.0
2014-Jul-29 04:33N 55°52' E 012°50'0 0.0
2014-Jul-29 03:32N 55°52' E 012°50'0 0.0
2014-Jul-29 02:21N 55°52' E 012°50'0 0.0
2014-Jul-29 01:26N 55°52' E 012°50'0 0.0
2014-Jul-29 00:17N 55°52' E 012°50'0 0.0
2014-Jul-28 23:29N 55°52' E 012°50'0 0.0
2014-Jul-28 22:33N 55°52' E 012°50'0 0.0
2014-Jul-28 21:32N 55°52' E 012°50'0 0.0
2014-Jul-28 20:33N 55°52' E 012°50'0 0.0
2014-Jul-28 19:32N 55°52' E 012°50'0 0.0
2014-Jul-28 18:33N 55°52' E 012°50'0 0.0
2014-Jul-28 17:33N 55°52' E 012°50'0 0.0
2014-Jul-28 16:32N 55°52' E 012°50'0 0.0
2014-Jul-28 15:32N 55°52' E 012°50'0 0.0
2014-Jul-28 14:33N 55°52' E 012°50'0 0.0
2014-Jul-28 13:32N 55°52' E 012°50'0 0.2
2014-Jul-28 12:31N 55°52' E 012°50'0 0.0
2014-Jul-28 11:31N 55°52' E 012°50'0 0.0
2014-Jul-28 10:28N 55°52' E 012°50'0 0.0
2014-Jul-28 09:31N 55°52' E 012°50'0 0.0
2014-Jul-28 08:31N 55°52' E 012°50'0 0.0
2014-Jul-28 07:31N 55°52' E 012°50'0 0.0
2014-Jul-28 06:31N 55°52' E 012°50'0 0.0
2014-Jul-28 05:31N 55°52' E 012°50'0 0.0
2014-Jul-28 04:31N 55°52' E 012°50'0 0.0
2014-Jul-28 03:31N 55°52' E 012°50'0 0.0
2014-Jul-28 02:31N 55°52' E 012°50'0 0.0
2014-Jul-28 01:28N 55°52' E 012°50'0 0.0
2014-Jul-28 00:28N 55°52' E 012°50'0 0.0
2014-Jul-27 23:31N 55°52' E 012°50'0 0.0
2014-Jul-27 22:31N 55°52' E 012°50'0 0.0
2014-Jul-27 21:31N 55°52' E 012°50'0 0.0
2014-Jul-27 20:31N 55°52' E 012°50'0 0.0
2014-Jul-27 19:31N 55°52' E 012°50'0 0.0
2014-Jul-27 18:31N 55°52' E 012°50'0 0.0
2014-Jul-27 17:31N 55°52' E 012°50'0 0.0
2014-Jul-27 16:31N 55°52' E 012°50'0 0.0
2014-Jul-27 15:31N 55°52' E 012°50'0 0.0
2014-Jul-27 14:31N 55°52' E 012°50'0 0.0
2014-Jul-27 13:31N 55°52' E 012°50'0 0.0
2014-Jul-27 12:31N 55°52' E 012°50'0 0.0
2014-Jul-27 11:31N 55°52' E 012°50'0 0.0
2014-Jul-27 10:31N 55°52' E 012°50'0 0.0
2014-Jul-27 09:31N 55°52' E 012°50'0 0.0
2014-Jul-27 08:31N 55°52' E 012°50'0 0.0
2014-Jul-27 07:31N 55°52' E 012°50'0 0.0
2014-Jul-27 06:28N 55°52' E 012°50'0 0.0
2014-Jul-27 05:31N 55°52' E 012°50'0 0.0
2014-Jul-27 04:31N 55°52' E 012°50'0 0.0
2014-Jul-27 03:31N 55°52' E 012°50'0 0.0
2014-Jul-27 02:31N 55°52' E 012°50'0 0.0
2014-Jul-27 01:31N 55°52' E 012°50'0 0.0
2014-Jul-27 00:31N 55°52' E 012°50'0 0.0
2014-Jul-26 23:31N 55°52' E 012°50'0 0.0
2014-Jul-26 22:31N 55°52' E 012°50'0 0.0
2014-Jul-26 21:28N 55°52' E 012°50'0 0.0
2014-Jul-26 20:31N 55°52' E 012°50'0 0.0
2014-Jul-26 19:31N 55°52' E 012°50'3 2.7
2014-Jul-26 18:33N 55°53' E 012°46'8 7.9
2014-Jul-26 17:33N 56°00' E 012°40'8 8.1
2014-Jul-26 16:33N 56°07' E 012°32'8 8.2
2014-Jul-26 15:33N 56°12' E 012°20'8 8.0
2014-Jul-26 14:33N 56°16' E 012°08'8 7.8
2014-Jul-26 13:33N 56°23' E 012°01'8 8.2
2014-Jul-26 12:32N 56°31' E 011°57'8 8.1
2014-Jul-26 11:32N 56°39' E 011°54'8 8.2
2014-Jul-26 10:33N 56°47' E 011°50'8 8.1
2014-Jul-26 09:33N 56°55' E 011°46'8 8.5
2014-Jul-26 08:32N 57°03' E 011°40'8 8.1
2014-Jul-26 07:33N 57°10' E 011°36'8 8.4
2014-Jul-26 06:33N 57°18' E 011°30'9 9.2
2014-Jul-26 05:33N 57°27' E 011°25'9 8.6
2014-Jul-26 04:33N 57°33' E 011°13'9 8.8
2014-Jul-26 03:33N 57°39' E 011°01'9 8.8
2014-Jul-26 02:33N 57°45' E 010°49'8 8.2
2014-Jul-26 01:33N 57°47' E 010°34'9 8.6
2014-Jul-26 00:33N 57°44' E 010°19'9 8.8
2014-Jul-25 23:33N 57°41' E 010°04'62 8.3
2014-Jul-25 16:06N 57°15' E 008°19'137 8.6
2014-Jul-25 00:16N 55°18' E 006°13'6 8.9
2014-Jul-24 23:33N 55°13' E 006°06'1714.8
2014-Jul-24 22:25N 54°59' E 005°51'4 3.1
2014-Jul-24 21:06N 54°55' E 005°48'6 8.4
2014-Jul-24 20:26N 54°50' E 005°43'9 8.5
2014-Jul-24 19:22N 54°42' E 005°35'8 8.7
2014-Jul-24 18:30N 54°36' E 005°28'8 8.7
2014-Jul-24 17:33N 54°29' E 005°21'11 8.6
2014-Jul-24 16:16N 54°19' E 005°11'6 8.6
2014-Jul-24 15:33N 54°14' E 005°06'9 8.4
2014-Jul-24 14:29N 54°06' E 004°59'8 8.3
2014-Jul-24 13:32N 53°58' E 004°56'8 8.0
2014-Jul-24 12:31N 53°50' E 004°54'11 7.8
2014-Jul-24 11:10N 53°40' E 004°50'5 7.6
2014-Jul-24 10:33N 53°36' E 004°48'8 7.4
2014-Jul-24 09:32N 53°29' E 004°44'7 7.5
2014-Jul-24 08:33N 53°22' E 004°39'11 7.9
2014-Jul-24 07:07N 53°11' E 004°32'5 8.0
2014-Jul-24 06:33N 53°07' E 004°29'9 9.0
2014-Jul-24 05:31N 52°59' E 004°22'9 9.0
2014-Jul-24 04:33N 52°51' E 004°15'10 9.4
2014-Jul-24 03:31N 52°43' E 004°06'10 9.6
2014-Jul-24 02:31N 52°37' E 003°54'9 9.7
2014-Jul-24 01:33N 52°30' E 003°43'9 9.3
2014-Jul-24 00:33N 52°24' E 003°32'11 9.4
2014-Jul-23 23:25N 52°16' E 003°20'8 9.1
2014-Jul-23 22:32N 52°10' E 003°11'8 8.6
2014-Jul-23 21:33N 52°04' E 003°01'9 8.5
2014-Jul-23 20:32N 51°58' E 002°52'7 6.9
2014-Jul-23 19:33N 51°53' E 002°45'7 7.0
2014-Jul-23 18:33N 51°47' E 002°38'7 6.6
2014-Jul-23 17:33N 51°42' E 002°31'7 6.6
2014-Jul-23 16:33N 51°37' E 002°24'7 7.2
2014-Jul-23 15:33N 51°32' E 002°16'8 8.0
2014-Jul-23 14:33N 51°26' E 002°07'8 8.5
2014-Jul-23 13:33N 51°20' E 001°59'9 9.0
2014-Jul-23 12:33N 51°13' E 001°49'10 9.5
2014-Jul-23 11:33N 51°05' E 001°41'10 9.6
2014-Jul-23 10:33N 50°57' E 001°33'88 7.8
2014-Jul-22 23:12N 49°50' E 000°02'5 8.1
2014-Jul-22 22:33N 49°45' E 000°02'8 8.5
2014-Jul-22 21:33N 49°37' W 000°03'8 7.8
2014-Jul-22 20:33N 49°29' W 000°05'9 9.1
2014-Jul-22 19:33N 49°26' E 000°08'10 9.7
2014-Jul-22 18:33N 49°27' E 000°23'7 6.4
2014-Jul-22 17:30N 49°27' E 000°33'  
Track history (hours):
 
Tides and Currents Weather Stations Pressure Air Temp Water Temp Dewpoint Dewpoint Depression Visibility Wind Speed Wind Dir Waves Ship Positions

Wilson Gdynia

Last reported at 2014-Jul-29 06:33 UTC. Time now 2014-Jul-29 06:40 UTC.
Position N 55°52' E 012°50'.

Length 88 m; draft 5.7 m.

Type: Cargo ship. MMSI: 314192000.

Date/timePositionNaut miles runAvg speedWind from/ knotsBaromVisibWave heightAir tempDewpointWater temp
2014-Jul-29 06:33N 55°52' E 012°50'0 0.0
2014-Jul-29 05:29N 55°52' E 012°50'0 0.0
2014-Jul-29 04:33N 55°52' E 012°50'0 0.0
2014-Jul-29 03:32N 55°52' E 012°50'0 0.0
2014-Jul-29 02:21N 55°52' E 012°50'0 0.0
2014-Jul-29 01:26N 55°52' E 012°50'0 0.0
2014-Jul-29 00:17N 55°52' E 012°50'0 0.0
2014-Jul-28 23:29N 55°52' E 012°50'0 0.0
2014-Jul-28 22:33N 55°52' E 012°50'0 0.0
2014-Jul-28 21:32N 55°52' E 012°50'0 0.0
2014-Jul-28 20:33N 55°52' E 012°50'0 0.0
2014-Jul-28 19:32N 55°52' E 012°50'0 0.0
2014-Jul-28 18:33N 55°52' E 012°50'0 0.0
2014-Jul-28 17:33N 55°52' E 012°50'0 0.0
2014-Jul-28 16:32N 55°52' E 012°50'0 0.0
2014-Jul-28 15:32N 55°52' E 012°50'0 0.0
2014-Jul-28 14:33N 55°52' E 012°50'0 0.0
2014-Jul-28 13:32N 55°52' E 012°50'0 0.2
2014-Jul-28 12:31N 55°52' E 012°50'0 0.0
2014-Jul-28 11:31N 55°52' E 012°50'0 0.0
2014-Jul-28 10:28N 55°52' E 012°50'0 0.0
2014-Jul-28 09:31N 55°52' E 012°50'0 0.0
2014-Jul-28 08:31N 55°52' E 012°50'0 0.0
2014-Jul-28 07:31N 55°52' E 012°50'0 0.0
2014-Jul-28 06:31N 55°52' E 012°50'0 0.0
2014-Jul-28 05:31N 55°52' E 012°50'0 0.0
2014-Jul-28 04:31N 55°52' E 012°50'0 0.0
2014-Jul-28 03:31N 55°52' E 012°50'0 0.0
2014-Jul-28 02:31N 55°52' E 012°50'0 0.0
2014-Jul-28 01:28N 55°52' E 012°50'0 0.0
2014-Jul-28 00:28N 55°52' E 012°50'0 0.0
2014-Jul-27 23:31N 55°52' E 012°50'0 0.0
2014-Jul-27 22:31N 55°52' E 012°50'0 0.0
2014-Jul-27 21:31N 55°52' E 012°50'0 0.0
2014-Jul-27 20:31N 55°52' E 012°50'0 0.0
2014-Jul-27 19:31N 55°52' E 012°50'0 0.0
2014-Jul-27 18:31N 55°52' E 012°50'0 0.0
2014-Jul-27 17:31N 55°52' E 012°50'0 0.0
2014-Jul-27 16:31N 55°52' E 012°50'0 0.0
2014-Jul-27 15:31N 55°52' E 012°50'0 0.0
2014-Jul-27 14:31N 55°52' E 012°50'0 0.0
2014-Jul-27 13:31N 55°52' E 012°50'0 0.0
2014-Jul-27 12:31N 55°52' E 012°50'0 0.0
2014-Jul-27 11:31N 55°52' E 012°50'0 0.0
2014-Jul-27 10:31N 55°52' E 012°50'0 0.0
2014-Jul-27 09:31N 55°52' E 012°50'0 0.0
2014-Jul-27 08:31N 55°52' E 012°50'0 0.0
2014-Jul-27 07:31N 55°52' E 012°50'0 0.0
2014-Jul-27 06:28N 55°52' E 012°50'0 0.0
2014-Jul-27 05:31N 55°52' E 012°50'0 0.0
2014-Jul-27 04:31N 55°52' E 012°50'0 0.0
2014-Jul-27 03:31N 55°52' E 012°50'0 0.0
2014-Jul-27 02:31N 55°52' E 012°50'0 0.0
2014-Jul-27 01:31N 55°52' E 012°50'0 0.0
2014-Jul-27 00:31N 55°52' E 012°50'0 0.0
2014-Jul-26 23:31N 55°52' E 012°50'0 0.0
2014-Jul-26 22:31N 55°52' E 012°50'0 0.0
2014-Jul-26 21:28N 55°52' E 012°50'0 0.0
2014-Jul-26 20:31N 55°52' E 012°50'0 0.0
2014-Jul-26 19:31N 55°52' E 012°50'3 2.7
2014-Jul-26 18:33N 55°53' E 012°46'8 7.9
2014-Jul-26 17:33N 56°00' E 012°40'8 8.1
2014-Jul-26 16:33N 56°07' E 012°32'8 8.2
2014-Jul-26 15:33N 56°12' E 012°20'8 8.0
2014-Jul-26 14:33N 56°16' E 012°08'8 7.8
2014-Jul-26 13:33N 56°23' E 012°01'8 8.2
2014-Jul-26 12:32N 56°31' E 011°57'8 8.1
2014-Jul-26 11:32N 56°39' E 011°54'8 8.2
2014-Jul-26 10:33N 56°47' E 011°50'8 8.1
2014-Jul-26 09:33N 56°55' E 011°46'8 8.5
2014-Jul-26 08:32N 57°03' E 011°40'8 8.1
2014-Jul-26 07:33N 57°10' E 011°36'8 8.4
2014-Jul-26 06:33N 57°18' E 011°30'9 9.2
2014-Jul-26 05:33N 57°27' E 011°25'9 8.6
2014-Jul-26 04:33N 57°33' E 011°13'9 8.8
2014-Jul-26 03:33N 57°39' E 011°01'9 8.8
2014-Jul-26 02:33N 57°45' E 010°49'8 8.2
2014-Jul-26 01:33N 57°47' E 010°34'9 8.6
2014-Jul-26 00:33N 57°44' E 010°19'9 8.8
2014-Jul-25 23:33N 57°41' E 010°04'62 8.3
2014-Jul-25 16:06N 57°15' E 008°19'137 8.6
2014-Jul-25 00:16N 55°18' E 006°13'6 8.9
2014-Jul-24 23:33N 55°13' E 006°06'1714.8
2014-Jul-24 22:25N 54°59' E 005°51'4 3.1
2014-Jul-24 21:06N 54°55' E 005°48'6 8.4
2014-Jul-24 20:26N 54°50' E 005°43'9 8.5
2014-Jul-24 19:22N 54°42' E 005°35'8 8.7
2014-Jul-24 18:30N 54°36' E 005°28'8 8.7
2014-Jul-24 17:33N 54°29' E 005°21'11 8.6
2014-Jul-24 16:16N 54°19' E 005°11'6 8.6
2014-Jul-24 15:33N 54°14' E 005°06'9 8.4
2014-Jul-24 14:29N 54°06' E 004°59'8 8.3
2014-Jul-24 13:32N 53°58' E 004°56'8 8.0
2014-Jul-24 12:31N 53°50' E 004°54'11 7.8
2014-Jul-24 11:10N 53°40' E 004°50'5 7.6
2014-Jul-24 10:33N 53°36' E 004°48'8 7.4
2014-Jul-24 09:32N 53°29' E 004°44'7 7.5
2014-Jul-24 08:33N 53°22' E 004°39'11 7.9
2014-Jul-24 07:07N 53°11' E 004°32'5 8.0
2014-Jul-24 06:33N 53°07' E 004°29'9 9.0
2014-Jul-24 05:31N 52°59' E 004°22'9 9.0
2014-Jul-24 04:33N 52°51' E 004°15'10 9.4
2014-Jul-24 03:31N 52°43' E 004°06'10 9.6
2014-Jul-24 02:31N 52°37' E 003°54'9 9.7
2014-Jul-24 01:33N 52°30' E 003°43'9 9.3
2014-Jul-24 00:33N 52°24' E 003°32'11 9.4
2014-Jul-23 23:25N 52°16' E 003°20'8 9.1
2014-Jul-23 22:32N 52°10' E 003°11'8 8.6
2014-Jul-23 21:33N 52°04' E 003°01'9 8.5
2014-Jul-23 20:32N 51°58' E 002°52'7 6.9
2014-Jul-23 19:33N 51°53' E 002°45'7 7.0
2014-Jul-23 18:33N 51°47' E 002°38'7 6.6
2014-Jul-23 17:33N 51°42' E 002°31'7 6.6
2014-Jul-23 16:33N 51°37' E 002°24'7 7.2
2014-Jul-23 15:33N 51°32' E 002°16'8 8.0
2014-Jul-23 14:33N 51°26' E 002°07'8 8.5
2014-Jul-23 13:33N 51°20' E 001°59'9 9.0
2014-Jul-23 12:33N 51°13' E 001°49'10 9.5
2014-Jul-23 11:33N 51°05' E 001°41'10 9.6
2014-Jul-23 10:33N 50°57' E 001°33'88 7.8
2014-Jul-22 23:12N 49°50' E 000°02'5 8.1
2014-Jul-22 22:33N 49°45' E 000°02'8 8.5
2014-Jul-22 21:33N 49°37' W 000°03'8 7.8
2014-Jul-22 20:33N 49°29' W 000°05'9 9.1
2014-Jul-22 19:33N 49°26' E 000°08'10 9.7
2014-Jul-22 18:33N 49°27' E 000°23'7 6.4
2014-Jul-22 17:30N 49°27' E 000°33'  

Dump ship's entire track history